Dixville, New Hampshire
Current Conditions -  °F | °C
As of 1:52 PM on Thursday 23 Oct 2014 (Local Time) from KBML Reporting Station
Light Rain Light Rain  
Wind Chill: 43°   Ceiling: 1800
Heat Index: 47°   Visibility: 8mi
Dew Point: 44°   Wind: 9mph
Humidity: 90%   Direction: 350°N
Pressure: 29.87"   Gusts: NA
Location:  44.8906°N, 71.3771°W
Report Text: KBML 231752Z AUTO 35008KT 8SM -RA FEW013 OVC018 08/07 A2987 RMK AO2 SLP121 P0011 60065 T00830067 10083 20067 58010
Loading
Personal Weather Stations






























Interactive Weather Map
Tropical Storm Tracking
New forecast layout! Learn more

10-Day Weather Forecast

Advertisements
Track Severe Weather on mobile